createdAt,value
2023-02-24T00:02:04.164Z,33.30
2023-02-24T00:04:39.846Z,32.85
2023-02-24T00:07:11.702Z,27.50
2023-02-24T00:09:39.192Z,31.00
2023-02-24T00:12:08.684Z,29.77
2023-02-24T00:14:38.911Z,29.75
2023-02-24T00:17:06.738Z,30.83
2023-02-24T00:19:33.541Z,28.73
2023-02-24T00:22:02.414Z,25.35
2023-02-24T00:24:29.450Z,27.38
2023-02-24T00:26:59.500Z,29.35
2023-02-24T00:29:27.892Z,33.05
2023-02-24T00:31:55.645Z,30.00
2023-02-24T00:34:22.699Z,28.75
2023-02-24T00:36:49.304Z,26.15
2023-02-24T00:39:15.759Z,28.80
2023-02-24T00:41:44.025Z,32.35
2023-02-24T00:44:14.270Z,26.50
2023-02-24T00:46:43.636Z,32.53
2023-02-24T00:49:18.586Z,31.80
2023-02-24T00:51:47.856Z,29.67
2023-02-24T00:54:15.426Z,27.17
2023-02-24T00:56:43.737Z,29.75
2023-02-24T00:59:11.254Z,28.38
2023-02-24T01:01:37.793Z,27.23
2023-02-24T01:04:06.768Z,27.67
2023-02-24T01:06:33.807Z,27.33
2023-02-24T01:09:00.994Z,27.00
2023-02-24T01:11:34.011Z,27.65
2023-02-24T01:14:00.467Z,29.38
2023-02-24T01:16:26.942Z,27.15
2023-02-24T01:18:53.754Z,26.30
2023-02-24T01:21:21.302Z,27.67
2023-02-24T01:23:49.912Z,26.20
2023-02-24T01:26:17.610Z,27.30
2023-02-24T01:28:45.115Z,25.33
2023-02-24T01:31:11.623Z,24.00
2023-02-24T01:33:39.157Z,24.73
2023-02-24T01:36:21.672Z,27.13
2023-02-24T01:38:48.560Z,23.25
2023-02-24T01:41:21.353Z,23.15
2023-02-24T01:43:58.984Z,29.33
2023-02-24T01:46:26.471Z,28.02
2023-02-24T01:48:57.146Z,25.23
2023-02-24T01:51:27.856Z,23.80
2023-02-24T01:53:54.849Z,28.10
2023-02-24T01:56:21.497Z,23.05
2023-02-24T01:58:48.349Z,25.02
2023-02-24T02:01:15.996Z,20.25
2023-02-24T02:03:43.483Z,27.08
2023-02-24T02:06:13.456Z,27.85
2023-02-24T02:08:42.146Z,28.45
2023-02-24T02:11:11.814Z,30.50
2023-02-24T02:13:43.183Z,27.25
2023-02-24T02:16:43.585Z,29.63
2023-02-24T02:19:31.067Z,30.13
2023-02-24T02:22:20.990Z,33.85
2023-02-24T02:25:00.129Z,27.02
2023-02-24T02:27:32.413Z,25.25
2023-02-24T02:30:01.928Z,31.85
2023-02-24T02:32:49.730Z,33.17
2023-02-24T02:35:18.486Z,29.90
2023-02-24T02:37:56.256Z,25.75
2023-02-24T02:40:33.427Z,26.63
2023-02-24T02:43:09.112Z,25.92
2023-02-24T02:45:56.941Z,25.65
2023-02-24T02:48:30.887Z,26.45
2023-02-24T02:51:13.816Z,26.77
2023-02-24T02:53:50.928Z,24.08
2023-02-24T02:56:22.385Z,26.45
2023-02-24T02:58:53.762Z,28.25
2023-02-24T03:01:45.712Z,26.55
2023-02-24T03:04:14.328Z,29.05
2023-02-24T03:06:46.654Z,28.30
2023-02-24T03:09:34.455Z,33.25
2023-02-24T03:12:15.258Z,26.50
2023-02-24T03:15:00.610Z,28.75
2023-02-24T03:17:39.881Z,26.10
2023-02-24T03:20:13.713Z,27.10
2023-02-24T03:22:45.734Z,25.02
2023-02-24T03:25:12.225Z,25.98
2023-02-24T03:27:49.424Z,22.45
2023-02-24T03:30:22.565Z,24.73
2023-02-24T03:33:13.676Z,27.27
2023-02-24T03:35:41.235Z,28.38
2023-02-24T03:38:09.061Z,25.92
2023-02-24T03:40:38.088Z,30.05
2023-02-24T03:43:18.836Z,30.00
2023-02-24T03:45:46.103Z,29.45
2023-02-24T03:48:13.803Z,31.73
2023-02-24T03:50:42.426Z,28.10
2023-02-24T03:53:30.302Z,27.77
2023-02-24T03:56:07.914Z,31.50
2023-02-24T03:58:56.548Z,30.90
2023-02-24T04:01:38.118Z,30.05
2023-02-24T04:04:21.467Z,32.95
2023-02-24T04:07:01.114Z,31.85
2023-02-24T04:09:41.555Z,41.50
2023-02-24T04:12:26.590Z,36.70
2023-02-24T04:15:12.414Z,32.45
2023-02-24T04:17:45.314Z,28.05
2023-02-24T04:20:14.641Z,29.55
2023-02-24T04:22:44.484Z,26.27
2023-02-24T04:25:12.575Z,29.30
2023-02-24T04:27:43.141Z,32.03
2023-02-24T04:30:13.109Z,30.60
2023-02-24T04:32:40.214Z,29.20
2023-02-24T04:35:10.247Z,26.20
2023-02-24T04:37:36.973Z,26.07
2023-02-24T04:40:04.602Z,31.42
2023-02-24T04:42:31.161Z,29.17
2023-02-24T04:44:57.704Z,28.20
2023-02-24T04:47:24.425Z,28.20
2023-02-24T04:49:51.109Z,27.75
2023-02-24T04:52:18.091Z,27.23
2023-02-24T04:54:44.621Z,31.63
2023-02-24T04:57:10.960Z,28.88
2023-02-24T04:59:37.597Z,24.17
2023-02-24T05:02:05.378Z,25.50
2023-02-24T05:04:35.622Z,27.58
2023-02-24T05:07:02.144Z,31.02
2023-02-24T05:09:28.563Z,29.20
2023-02-24T05:11:57.549Z,29.55
2023-02-24T05:14:24.289Z,33.10
2023-02-24T05:16:51.158Z,29.90
2023-02-24T05:19:20.151Z,25.10
2023-02-24T05:21:46.967Z,26.90
2023-02-24T05:24:14.539Z,38.15
2023-02-24T05:26:41.002Z,32.25
2023-02-24T05:29:07.645Z,32.63
2023-02-24T05:31:34.729Z,33.83
2023-02-24T05:34:04.067Z,32.35
2023-02-24T05:36:34.218Z,35.20
2023-02-24T05:39:00.745Z,32.10
2023-02-24T05:41:28.063Z,37.70
2023-02-24T05:43:55.795Z,31.73
2023-02-24T05:46:24.859Z,36.92
2023-02-24T05:48:51.304Z,37.88
2023-02-24T05:51:18.197Z,31.25
2023-02-24T05:53:44.672Z,26.35
2023-02-24T05:56:12.717Z,33.80
2023-02-24T05:58:41.835Z,35.25
2023-02-24T06:01:13.522Z,33.83
2023-02-24T06:03:39.945Z,34.55
2023-02-24T06:06:06.677Z,33.17
2023-02-24T06:08:33.614Z,35.97
2023-02-24T06:11:00.075Z,35.72
2023-02-24T06:13:26.488Z,36.78
2023-02-24T06:15:56.186Z,39.10
2023-02-24T06:18:23.238Z,44.47
2023-02-24T06:20:49.650Z,41.30
2023-02-24T06:23:16.145Z,36.80
2023-02-24T06:25:45.199Z,35.42
2023-02-24T06:28:11.752Z,30.70
2023-02-24T06:30:38.479Z,27.45
2023-02-24T06:33:04.964Z,31.05
2023-02-24T06:35:31.989Z,31.85
2023-02-24T06:38:00.025Z,29.52
2023-02-24T06:40:26.561Z,38.83
2023-02-24T06:42:53.474Z,30.63
2023-02-24T06:45:20.246Z,31.65
2023-02-24T06:47:46.709Z,34.85
2023-02-24T06:50:13.214Z,32.50
2023-02-24T06:52:39.894Z,29.10
2023-02-24T06:55:07.188Z,30.58
2023-02-24T06:57:33.974Z,30.35
2023-02-24T07:00:01.035Z,34.42
2023-02-24T07:02:27.382Z,30.30
2023-02-24T07:04:54.069Z,33.53
2023-02-24T07:07:21.143Z,30.58
2023-02-24T07:09:47.606Z,29.15
2023-02-24T07:12:14.056Z,43.92
2023-02-24T07:14:40.940Z,37.72
2023-02-24T07:17:07.909Z,28.10
2023-02-24T07:19:34.342Z,36.90
2023-02-24T07:22:02.868Z,39.38
2023-02-24T07:24:32.534Z,35.25
2023-02-24T07:27:02.082Z,41.00
2023-02-24T07:29:30.685Z,35.67
2023-02-24T07:32:08.723Z,31.83
2023-02-24T07:34:36.011Z,29.55
2023-02-24T07:37:02.462Z,35.13
2023-02-24T07:39:28.878Z,39.70
2023-02-24T07:41:55.281Z,39.58
2023-02-24T07:44:23.432Z,43.63
2023-02-24T07:46:50.933Z,40.92
2023-02-24T07:49:21.892Z,42.30
2023-02-24T07:51:48.713Z,42.55
2023-02-24T07:54:16.413Z,40.53
2023-02-24T07:56:42.990Z,39.83
2023-02-24T07:59:09.577Z,44.53
2023-02-24T08:01:38.055Z,50.92
2023-02-24T08:04:08.577Z,51.10
2023-02-24T08:06:39.420Z,41.90
2023-02-24T08:11:33.505Z,67.63
2023-02-24T08:14:02.176Z,67.20
2023-02-24T08:16:31.379Z,69.22
2023-02-24T08:18:57.771Z,74.05
2023-02-24T08:21:24.211Z,69.55
2023-02-24T08:23:50.634Z,51.50
2023-02-24T08:26:17.183Z,51.53
2023-02-24T08:28:43.622Z,51.45
2023-02-24T08:31:10.486Z,52.25
2023-02-24T08:33:37.246Z,52.85
2023-02-24T08:36:04.916Z,53.35
2023-02-24T08:38:36.238Z,53.33
2023-02-24T08:41:02.629Z,50.65
2023-02-24T08:43:31.340Z,56.67
2023-02-24T08:46:02.170Z,51.13
2023-02-24T08:50:57.189Z,53.00
2023-02-24T08:53:25.344Z,58.50
2023-02-24T08:55:51.833Z,52.55
2023-02-24T08:58:21.312Z,70.50
2023-02-24T09:00:48.024Z,51.80
2023-02-24T09:03:19.421Z,62.55
2023-02-24T09:05:48.337Z,52.20
2023-02-24T09:08:14.955Z,57.05
2023-02-24T09:10:41.719Z,72.05
2023-02-24T09:13:08.602Z,57.47
2023-02-24T09:15:35.111Z,70.72
2023-02-24T09:18:01.852Z,65.70
2023-02-24T09:20:28.619Z,63.40
2023-02-24T09:22:57.783Z,73.85
2023-02-24T09:25:27.296Z,69.60
2023-02-24T09:28:04.388Z,67.18
2023-02-24T09:30:35.280Z,66.68
2023-02-24T09:35:58.282Z,64.93
2023-02-24T09:38:24.690Z,72.72
2023-02-24T09:40:51.089Z,78.03
2023-02-24T09:43:27.559Z,69.72
2023-02-24T09:46:08.184Z,72.32
2023-02-24T09:48:46.081Z,73.35
2023-02-24T09:51:16.633Z,63.00
2023-02-24T09:53:43.243Z,69.25
2023-02-24T09:56:20.323Z,67.00
2023-02-24T09:59:12.274Z,65.07
2023-02-24T10:02:02.525Z,67.82
2023-02-24T10:04:56.866Z,65.28
2023-02-24T10:07:31.949Z,61.15
2023-02-24T10:10:08.103Z,64.68
2023-02-24T10:12:36.461Z,62.53
2023-02-24T10:15:17.545Z,54.90
2023-02-24T10:17:50.338Z,54.55
2023-02-24T10:20:20.210Z,55.25
2023-02-24T10:22:56.780Z,56.17
2023-02-24T10:25:42.295Z,49.38
2023-02-24T10:28:22.279Z,49.33
2023-02-24T10:31:10.958Z,48.90
2023-02-24T10:33:41.747Z,47.72
2023-02-24T10:36:21.390Z,50.15
2023-02-24T10:38:47.854Z,47.88
2023-02-24T10:41:15.426Z,33.40
2023-02-24T10:43:53.830Z,37.28
2023-02-24T10:46:40.172Z,31.42
2023-02-24T10:49:11.384Z,37.65
2023-02-24T10:51:47.380Z,32.35
2023-02-24T10:54:29.204Z,28.27
2023-02-24T10:56:55.908Z,27.05
2023-02-24T10:59:22.489Z,26.77
2023-02-24T11:02:14.663Z,23.48
2023-02-24T11:04:43.725Z,31.45
2023-02-24T11:07:15.195Z,23.42
2023-02-24T11:09:41.729Z,28.83
2023-02-24T11:12:15.902Z,24.83
2023-02-24T11:14:56.141Z,24.00
2023-02-24T11:17:24.128Z,29.80
2023-02-24T11:19:58.824Z,24.67
2023-02-24T11:22:34.439Z,30.60
2023-02-24T11:25:08.974Z,28.95
2023-02-24T11:27:35.924Z,39.67
2023-02-24T11:30:02.532Z,35.28
2023-02-24T11:32:40.628Z,52.47
2023-02-24T11:35:34.141Z,58.20
2023-02-24T11:38:17.037Z,52.88
2023-02-24T11:40:49.194Z,48.58
2023-02-24T11:43:23.444Z,57.15
2023-02-24T11:46:00.328Z,59.38
2023-02-24T11:48:47.084Z,54.97
2023-02-24T11:51:21.025Z,44.90
2023-02-24T11:54:11.342Z,54.17
2023-02-24T11:56:47.099Z,45.65
2023-02-24T11:59:23.382Z,41.58
2023-02-24T12:02:03.441Z,45.63
2023-02-24T12:04:35.551Z,39.95
2023-02-24T12:07:10.828Z,43.05
2023-02-24T12:10:06.969Z,42.47
2023-02-24T12:12:51.383Z,32.60
2023-02-24T12:15:24.444Z,31.27
2023-02-24T12:18:17.253Z,31.90
2023-02-24T12:21:01.329Z,35.38
2023-02-24T12:23:35.761Z,24.05
2023-02-24T12:26:05.667Z,27.35
2023-02-24T12:28:53.517Z,23.57
2023-02-24T12:31:32.177Z,36.67
2023-02-24T12:34:31.530Z,30.00
2023-02-24T12:37:26.417Z,37.17
2023-02-24T12:40:12.703Z,28.60
2023-02-24T12:42:57.334Z,37.97
2023-02-24T12:45:30.734Z,35.65
2023-02-24T12:48:21.473Z,37.00
2023-02-24T12:51:03.632Z,28.35
2023-02-24T12:53:44.130Z,26.15
2023-02-24T12:56:24.135Z,29.98
2023-02-24T12:58:56.472Z,25.75
2023-02-24T13:01:41.127Z,26.92
2023-02-24T13:04:16.516Z,32.63
2023-02-24T13:06:58.321Z,25.10
2023-02-24T13:09:40.637Z,27.30
2023-02-24T13:12:25.903Z,33.42
2023-02-24T13:14:52.818Z,33.20
2023-02-24T13:17:25.113Z,29.38
2023-02-24T13:19:53.402Z,27.98
2023-02-24T13:22:22.173Z,29.77
2023-02-24T13:24:56.952Z,28.45
2023-02-24T13:27:33.580Z,46.45
2023-02-24T13:30:06.983Z,26.48
2023-02-24T13:32:39.302Z,20.17
2023-02-24T13:35:26.490Z,35.70
2023-02-24T13:37:54.136Z,25.65
2023-02-24T13:40:20.526Z,24.25
2023-02-24T13:43:01.052Z,22.52
2023-02-24T13:45:40.756Z,22.80
2023-02-24T13:48:44.814Z,19.70
2023-02-24T13:51:28.967Z,30.80
2023-02-24T13:54:08.041Z,31.73
2023-02-24T13:56:56.960Z,19.17
2023-02-24T13:59:41.524Z,29.95
2023-02-24T14:02:11.086Z,25.80
2023-02-24T14:04:45.194Z,23.23
2023-02-24T14:07:17.950Z,21.77
2023-02-24T14:09:49.261Z,22.35
2023-02-24T14:12:21.225Z,17.02
2023-02-24T14:14:49.229Z,24.77
2023-02-24T14:17:29.900Z,20.98
2023-02-24T14:25:17.199Z,23.27
2023-02-24T14:27:47.229Z,21.55
2023-02-24T14:30:23.743Z,30.15
2023-02-24T14:32:50.442Z,30.10
2023-02-24T14:35:32.586Z,22.98
2023-02-24T14:38:03.773Z,19.23
2023-02-24T14:40:30.395Z,27.75
2023-02-24T14:42:57.037Z,20.85
2023-02-24T14:45:27.218Z,23.25
2023-02-24T14:47:55.381Z,23.88
2023-02-24T14:50:40.205Z,24.67
2023-02-24T14:53:15.815Z,29.80
2023-02-24T14:55:48.343Z,23.20
2023-02-24T14:58:30.252Z,23.90
2023-02-24T15:01:05.375Z,30.30
2023-02-24T15:03:31.881Z,22.20
2023-02-24T15:06:01.370Z,29.02
2023-02-24T15:08:35.837Z,42.97
2023-02-24T15:11:18.473Z,46.50
2023-02-24T15:13:50.221Z,51.78
2023-02-24T15:16:24.722Z,45.42
2023-02-24T15:18:54.224Z,55.33
2023-02-24T15:21:30.556Z,57.13
2023-02-24T15:24:02.899Z,56.42
2023-02-24T15:26:32.417Z,54.33
2023-02-24T15:29:01.730Z,59.72
2023-02-24T15:31:29.801Z,53.42
2023-02-24T15:34:02.998Z,61.60
2023-02-24T15:36:36.169Z,57.55
2023-02-24T15:39:18.535Z,55.97
2023-02-24T15:41:46.996Z,50.10
2023-02-24T15:44:31.755Z,56.95
2023-02-24T15:47:00.009Z,55.03
2023-02-24T15:49:26.928Z,56.00
2023-02-24T15:55:14.511Z,53.17
2023-02-24T15:57:41.563Z,48.83
2023-02-24T16:00:08.709Z,58.38
2023-02-24T16:02:35.322Z,38.55
2023-02-24T16:05:01.827Z,49.15
2023-02-24T16:07:33.780Z,42.67
2023-02-24T16:10:01.235Z,43.83
2023-02-24T16:12:32.860Z,45.10
2023-02-24T16:15:00.578Z,41.08
2023-02-24T16:17:33.726Z,48.97
2023-02-24T16:20:01.110Z,45.15
2023-02-24T16:22:29.109Z,41.42
2023-02-24T16:24:58.204Z,38.72
2023-02-24T16:27:28.038Z,39.92
2023-02-24T16:29:54.362Z,60.05
2023-02-24T16:32:21.106Z,54.25
2023-02-24T16:34:48.056Z,33.00
2023-02-24T16:37:20.021Z,36.88
2023-02-24T16:39:46.972Z,38.28
2023-02-24T16:42:14.531Z,38.05
2023-02-24T16:44:40.905Z,46.47
2023-02-24T16:47:12.295Z,40.42
2023-02-24T16:49:39.961Z,35.17
2023-02-24T16:52:06.684Z,37.05
2023-02-24T16:54:34.268Z,43.15
2023-02-24T16:57:00.849Z,42.22
2023-02-24T16:59:27.263Z,40.25
2023-02-24T17:01:55.545Z,44.33
2023-02-24T17:04:23.364Z,34.97
2023-02-24T17:06:49.727Z,34.75
2023-02-24T17:09:16.398Z,39.55
2023-02-24T17:11:42.990Z,33.92
2023-02-24T17:14:20.614Z,34.60
2023-02-24T17:16:48.759Z,41.92
2023-02-24T17:19:15.466Z,39.58
2023-02-24T17:21:45.672Z,31.60
2023-02-24T17:24:20.682Z,34.35
2023-02-24T17:26:47.511Z,42.30
2023-02-24T17:29:14.696Z,38.95
2023-02-24T17:31:41.710Z,38.50
2023-02-24T17:34:09.863Z,40.28
2023-02-24T17:36:36.943Z,37.88
2023-02-24T17:39:03.520Z,48.03
2023-02-24T17:41:30.635Z,40.28
2023-02-24T17:43:58.402Z,46.80
2023-02-24T17:46:25.303Z,58.38
2023-02-24T17:48:52.008Z,41.17
2023-02-24T17:51:20.207Z,43.08
2023-02-24T17:53:46.926Z,40.15
2023-02-24T17:56:13.536Z,38.38
2023-02-24T17:58:40.597Z,32.72
2023-02-24T18:01:07.578Z,41.80
2023-02-24T18:03:35.437Z,33.95
2023-02-24T18:06:09.011Z,34.10
2023-02-24T18:08:37.298Z,28.42
2023-02-24T18:11:04.851Z,30.13
2023-02-24T18:13:32.741Z,27.38
2023-02-24T18:16:01.949Z,26.15
2023-02-24T18:18:28.465Z,18.80
2023-02-24T18:21:00.293Z,20.25
2023-02-24T18:23:26.807Z,15.63
2023-02-24T18:25:53.312Z,21.63
2023-02-24T18:28:20.216Z,18.27
2023-02-24T18:30:47.145Z,15.93
2023-02-24T18:33:14.132Z,15.30
2023-02-24T18:35:40.863Z,15.70
2023-02-24T18:38:07.287Z,22.92
2023-02-24T18:40:33.765Z,19.63
2023-02-24T18:43:00.207Z,18.63
2023-02-24T18:45:27.895Z,16.95
2023-02-24T18:47:54.525Z,22.88
2023-02-24T18:50:21.166Z,19.02
2023-02-24T18:52:53.783Z,20.45
2023-02-24T18:55:21.444Z,19.45
2023-02-24T18:57:47.975Z,19.23
2023-02-24T19:00:14.980Z,18.88
2023-02-24T19:02:41.881Z,14.82
2023-02-24T19:05:09.003Z,17.65
2023-02-24T19:07:35.491Z,21.77
2023-02-24T19:10:02.137Z,14.23
2023-02-24T19:12:31.364Z,13.88
2023-02-24T19:14:59.126Z,12.07
2023-02-24T19:17:28.112Z,11.25
2023-02-24T19:19:57.369Z,10.32
2023-02-24T19:22:24.051Z,13.07
2023-02-24T19:24:50.511Z,12.25
2023-02-24T19:27:17.188Z,6.40
2023-02-24T19:29:43.513Z,11.60
2023-02-24T19:32:09.960Z,7.65
2023-02-24T19:34:36.915Z,8.27
2023-02-24T19:37:03.313Z,6.55
2023-02-24T19:39:29.773Z,10.35
2023-02-24T19:41:56.382Z,7.43
2023-02-24T19:44:23.801Z,13.07
2023-02-24T19:46:50.318Z,16.90
2023-02-24T19:49:16.837Z,18.08
2023-02-24T19:51:43.237Z,18.30
2023-02-24T19:54:11.961Z,18.40
2023-02-24T19:56:38.416Z,17.63
2023-02-24T19:59:07.796Z,22.20
2023-02-24T20:01:34.240Z,25.17
2023-02-24T20:04:02.861Z,23.70
2023-02-24T20:06:38.799Z,24.52
2023-02-24T20:09:17.669Z,29.02
2023-02-24T20:11:45.579Z,25.88
2023-02-24T20:14:13.606Z,22.63
2023-02-24T20:16:41.259Z,25.40
2023-02-24T20:19:09.117Z,26.35
2023-02-24T20:21:36.120Z,26.00
2023-02-24T20:24:05.702Z,27.88
2023-02-24T20:26:32.973Z,26.88
2023-02-24T20:29:00.816Z,26.98
2023-02-24T20:31:28.115Z,33.35
2023-02-24T20:33:54.866Z,31.88
2023-02-24T20:36:25.272Z,29.30
2023-02-24T20:38:52.421Z,26.27
2023-02-24T20:41:21.504Z,25.98
2023-02-24T20:43:48.492Z,32.72
2023-02-24T20:46:26.288Z,30.58
2023-02-24T20:48:57.212Z,27.27
2023-02-24T20:51:24.379Z,28.73
2023-02-24T20:53:57.841Z,31.55
2023-02-24T20:56:26.876Z,30.48
2023-02-24T20:58:58.919Z,28.48
2023-02-24T21:01:25.957Z,29.10
2023-02-24T21:03:53.490Z,28.55
2023-02-24T21:06:20.279Z,30.77
2023-02-24T21:08:46.975Z,31.52
2023-02-24T21:11:14.482Z,26.75
2023-02-24T21:13:46.040Z,28.10
2023-02-24T21:16:14.004Z,29.42
2023-02-24T21:18:42.394Z,30.42
2023-02-24T21:21:21.117Z,29.88
2023-02-24T21:23:48.353Z,20.70
2023-02-24T21:26:15.795Z,16.13
2023-02-24T21:28:46.481Z,13.10
2023-02-24T21:31:18.676Z,14.10
2023-02-24T21:33:50.007Z,19.38
2023-02-24T21:36:16.704Z,16.38
2023-02-24T21:38:43.130Z,13.90
2023-02-24T21:41:13.331Z,19.38
2023-02-24T21:43:39.951Z,15.77
2023-02-24T21:46:09.376Z,11.55
2023-02-24T21:48:36.111Z,8.50
2023-02-24T21:51:05.805Z,5.93
2023-02-24T21:53:33.491Z,6.30
2023-02-24T21:56:10.401Z,4.75
2023-02-24T21:58:39.168Z,7.30
2023-02-24T22:01:21.178Z,4.70
2023-02-24T22:03:47.654Z,3.67
2023-02-24T22:06:16.025Z,4.47
2023-02-24T22:08:42.512Z,11.10
2023-02-24T22:11:15.441Z,4.95
2023-02-24T22:13:43.994Z,5.55
2023-02-24T22:16:13.474Z,7.43
2023-02-24T22:18:40.295Z,5.85
2023-02-24T22:21:12.333Z,6.15
2023-02-24T22:23:39.814Z,4.78
2023-02-24T22:26:10.407Z,7.82
2023-02-24T22:28:39.882Z,6.15
2023-02-24T22:31:08.230Z,6.88
2023-02-24T22:33:36.614Z,6.22
2023-02-24T22:36:04.898Z,8.77
2023-02-24T22:38:35.846Z,6.13
2023-02-24T22:43:34.413Z,8.82
2023-02-24T22:46:03.673Z,7.22
2023-02-24T22:48:31.192Z,7.22
2023-02-24T22:50:59.507Z,6.72
2023-02-24T22:53:28.550Z,8.27
2023-02-24T22:55:55.019Z,14.13
2023-02-24T22:58:22.142Z,10.73
2023-02-24T23:00:48.784Z,9.65
2023-02-24T23:03:26.042Z,7.22
2023-02-24T23:06:00.759Z,10.52
2023-02-24T23:08:29.161Z,12.30
2023-02-24T23:11:07.716Z,9.75
2023-02-24T23:13:35.031Z,12.95
2023-02-24T23:16:02.826Z,8.38
2023-02-24T23:18:29.917Z,10.57
2023-02-24T23:21:05.424Z,9.73
2023-02-24T23:23:32.404Z,10.07
2023-02-24T23:26:00.086Z,10.23
2023-02-24T23:28:27.095Z,9.85
2023-02-24T23:30:55.204Z,12.13
2023-02-24T23:33:23.254Z,11.70
2023-02-24T23:35:50.146Z,11.77
2023-02-24T23:38:17.171Z,10.57
2023-02-24T23:40:49.987Z,14.85
2023-02-24T23:43:17.673Z,11.68
2023-02-24T23:45:44.834Z,13.40
2023-02-24T23:48:13.506Z,10.07
2023-02-24T23:50:41.524Z,11.23
2023-02-24T23:53:08.822Z,11.25
2023-02-24T23:55:35.825Z,12.77
2023-02-24T23:58:03.492Z,10.15
